Terminal Aerodrome Forecast
Issued by NWS

Home | Current Version | Previous Version | Text Only | Print | Product List | Glossary On
Versions: 1 2 3 4 5 6 7 8 9 10 11 12 13 14 15 16 17 18 19 20 21 22 23
000
FTUS44 KTSA 210529
TAFMLC
TAF
KMLC 210529Z 2106/2206 19004KT P6SM SCT250
     FM211200 18009KT P6SM SCT100
     FM212100 17010KT P6SM VCSH BKN060
     FM212300 15009KT P6SM -RA BKN050=

USA.gov is the U.S. government's official web portal to all federal, state and local government web resources and services.